sensor_id;sensor_type;location;lat;lon;timestamp;pressure;altitude;pressure_sealevel;temperature;humidity
7760;BME280;3924;48.830;9.262;2022-12-15T00:00:03;97390.28;;;-1.54;89.10
7760;BME280;3924;48.830;9.262;2022-12-15T00:02:49;97406.22;;;-1.54;89.31
7760;BME280;3924;48.830;9.262;2022-12-15T00:05:34;97409.38;;;-1.57;88.97
7760;BME280;3924;48.830;9.262;2022-12-15T00:08:19;97410.09;;;-1.61;89.05
7760;BME280;3924;48.830;9.262;2022-12-15T00:11:04;97405.59;;;-1.61;89.23
7760;BME280;3924;48.830;9.262;2022-12-15T00:13:49;97411.47;;;-1.59;89.36
7760;BME280;3924;48.830;9.262;2022-12-15T00:16:34;97428.47;;;-1.60;89.09
7760;BME280;3924;48.830;9.262;2022-12-15T00:19:19;97426.84;;;-1.61;89.26
7760;BME280;3924;48.830;9.262;2022-12-15T00:22:04;97425.25;;;-1.62;89.43
7760;BME280;3924;48.830;9.262;2022-12-15T00:24:49;97431.03;;;-1.65;89.25
7760;BME280;3924;48.830;9.262;2022-12-15T00:27:35;97432.31;;;-1.68;89.25
7760;BME280;3924;48.830;9.262;2022-12-15T00:30:20;97429.56;;;-1.73;89.22
7760;BME280;3924;48.830;9.262;2022-12-15T00:33:11;97430.97;;;-1.70;89.40
7760;BME280;3924;48.830;9.262;2022-12-15T00:35:57;97441.09;;;-1.67;89.26
7760;BME280;3924;48.830;9.262;2022-12-15T00:38:43;97433.13;;;-1.67;89.26
7760;BME280;3924;48.830;9.262;2022-12-15T00:41:15;97434.66;;;-1.71;89.34
7760;BME280;3924;48.830;9.262;2022-12-15T00:43:42;97432.47;;;-1.74;89.11
7760;BME280;3924;48.830;9.262;2022-12-15T00:46:09;97426.06;;;-1.78;89.30
7760;BME280;3924;48.830;9.262;2022-12-15T00:48:54;97448.91;;;-1.77;89.36
7760;BME280;3924;48.830;9.262;2022-12-15T00:51:21;97450.53;;;-1.76;89.37
7760;BME280;3924;48.830;9.262;2022-12-15T00:54:09;97454.22;;;-1.77;89.18
7760;BME280;3924;48.830;9.262;2022-12-15T00:56:55;97462.19;;;-1.77;89.30
7760;BME280;3924;48.830;9.262;2022-12-15T00:59:41;97457.94;;;-1.78;89.45
7760;BME280;3924;48.830;9.262;2022-12-15T01:02:28;97460.81;;;-1.80;89.43
7760;BME280;3924;48.830;9.262;2022-12-15T01:05:15;97469.81;;;-1.81;89.37
7760;BME280;3924;48.830;9.262;2022-12-15T01:08:02;97462.09;;;-1.82;89.44
7760;BME280;3924;48.830;9.262;2022-12-15T01:10:48;97462.09;;;-1.82;89.42
7760;BME280;3924;48.830;9.262;2022-12-15T01:13:35;97471.94;;;-1.83;89.17
7760;BME280;3924;48.830;9.262;2022-12-15T01:16:21;97463.16;;;-1.83;89.13
7760;BME280;3924;48.830;9.262;2022-12-15T01:19:08;97466.91;;;-1.79;89.40
7760;BME280;3924;48.830;9.262;2022-12-15T01:21:59;97468.88;;;-1.75;89.49
7760;BME280;3924;48.830;9.262;2022-12-15T01:24:32;97477.09;;;-1.76;89.32
7760;BME280;3924;48.830;9.262;2022-12-15T01:27:08;97478.34;;;-1.79;89.28
7760;BME280;3924;48.830;9.262;2022-12-15T01:29:40;97481.84;;;-1.78;89.25
7760;BME280;3924;48.830;9.262;2022-12-15T01:32:12;97487.38;;;-1.80;89.30
7760;BME280;3924;48.830;9.262;2022-12-15T01:34:43;97484.94;;;-1.81;89.40
7760;BME280;3924;48.830;9.262;2022-12-15T01:37:11;97486.25;;;-1.84;89.33
7760;BME280;3924;48.830;9.262;2022-12-15T01:39:41;97490.28;;;-1.81;89.42
7760;BME280;3924;48.830;9.262;2022-12-15T01:42:37;97494.78;;;-1.82;89.67
7760;BME280;3924;48.830;9.262;2022-12-15T01:51:05;97488.66;;;-1.82;89.43
7760;BME280;3924;48.830;9.262;2022-12-15T01:53:40;97483.34;;;-1.82;89.03
7760;BME280;3924;48.830;9.262;2022-12-15T01:56:17;97489.13;;;-1.85;89.41
7760;BME280;3924;48.830;9.262;2022-12-15T01:58:50;97494.44;;;-1.85;89.57
7760;BME280;3924;48.830;9.262;2022-12-15T02:01:25;97490.16;;;-1.86;89.53
7760;BME280;3924;48.830;9.262;2022-12-15T02:04:03;97497.34;;;-1.87;89.39
7760;BME280;3924;48.830;9.262;2022-12-15T02:06:37;97490.75;;;-1.84;89.41
7760;BME280;3924;48.830;9.262;2022-12-15T02:09:18;97492.94;;;-1.81;89.67
7760;BME280;3924;48.830;9.262;2022-12-15T02:32:36;97520.38;;;-1.76;89.71
7760;BME280;3924;48.830;9.262;2022-12-15T02:38:28;97507.41;;;-1.72;89.34
7760;BME280;3924;48.830;9.262;2022-12-15T02:41:29;97510.00;;;-1.77;89.56
7760;BME280;3924;48.830;9.262;2022-12-15T02:44:04;97510.56;;;-1.75;89.72
7760;BME280;3924;48.830;9.262;2022-12-15T02:50:48;97525.84;;;-1.82;89.45
7760;BME280;3924;48.830;9.262;2022-12-15T02:53:47;97519.38;;;-1.86;89.80
7760;BME280;3924;48.830;9.262;2022-12-15T02:56:31;97529.53;;;-1.83;89.66
7760;BME280;3924;48.830;9.262;2022-12-15T02:59:10;97515.78;;;-1.80;89.78
7760;BME280;3924;48.830;9.262;2022-12-15T03:01:43;97512.66;;;-1.77;89.84
7760;BME280;3924;48.830;9.262;2022-12-15T03:04:15;97518.28;;;-1.74;89.74
7760;BME280;3924;48.830;9.262;2022-12-15T03:06:42;97533.75;;;-1.71;89.92
7760;BME280;3924;48.830;9.262;2022-12-15T03:09:08;97522.88;;;-1.69;89.58
7760;BME280;3924;48.830;9.262;2022-12-15T03:11:35;97532.47;;;-1.68;89.67
7760;BME280;3924;48.830;9.262;2022-12-15T03:14:02;97536.19;;;-1.69;89.74
7760;BME280;3924;48.830;9.262;2022-12-15T03:16:28;97541.47;;;-1.69;89.76
7760;BME280;3924;48.830;9.262;2022-12-15T03:18:55;97523.94;;;-1.70;89.51
7760;BME280;3924;48.830;9.262;2022-12-15T03:21:21;97525.56;;;-1.69;89.80
7760;BME280;3924;48.830;9.262;2022-12-15T03:23:48;97522.88;;;-1.69;89.70
7760;BME280;3924;48.830;9.262;2022-12-15T03:26:14;97531.16;;;-1.66;89.90
7760;BME280;3924;48.830;9.262;2022-12-15T03:28:41;97541.59;;;-1.64;89.69
7760;BME280;3924;48.830;9.262;2022-12-15T03:31:07;97546.09;;;-1.64;89.84
7760;BME280;3924;48.830;9.262;2022-12-15T03:33:34;97541.81;;;-1.66;89.74
7760;BME280;3924;48.830;9.262;2022-12-15T03:36:00;97546.09;;;-1.64;89.69
7760;BME280;3924;48.830;9.262;2022-12-15T03:38:27;97544.69;;;-1.67;89.58
7760;BME280;3924;48.830;9.262;2022-12-15T03:40:53;97539.88;;;-1.70;89.72
7760;BME280;3924;48.830;9.262;2022-12-15T03:43:20;97541.72;;;-1.71;89.76
7760;BME280;3924;48.830;9.262;2022-12-15T03:45:47;97552.91;;;-1.69;89.94
7760;BME280;3924;48.830;9.262;2022-12-15T03:48:13;97548.41;;;-1.68;89.31
7760;BME280;3924;48.830;9.262;2022-12-15T03:50:39;97554.78;;;-1.69;89.93
7760;BME280;3924;48.830;9.262;2022-12-15T03:53:06;97559.03;;;-1.68;89.83
7760;BME280;3924;48.830;9.262;2022-12-15T03:55:37;97553.72;;;-1.68;89.91
7760;BME280;3924;48.830;9.262;2022-12-15T03:58:22;97561.94;;;-1.70;89.72
7760;BME280;3924;48.830;9.262;2022-12-15T04:01:25;97564.34;;;-1.68;90.14
7760;BME280;3924;48.830;9.262;2022-12-15T04:03:54;97579.00;;;-1.66;89.97
7760;BME280;3924;48.830;9.262;2022-12-15T04:06:28;97592.06;;;-1.64;89.86
7760;BME280;3924;48.830;9.262;2022-12-15T04:08:59;97585.59;;;-1.68;89.71
7760;BME280;3924;48.830;9.262;2022-12-15T04:11:39;97581.34;;;-1.69;89.95
7760;BME280;3924;48.830;9.262;2022-12-15T04:14:08;97577.88;;;-1.70;89.77
7760;BME280;3924;48.830;9.262;2022-12-15T04:17:03;97582.38;;;-1.70;89.96
7760;BME280;3924;48.830;9.262;2022-12-15T04:20:00;97584.00;;;-1.69;90.08
7760;BME280;3924;48.830;9.262;2022-12-15T04:22:46;97585.09;;;-1.65;90.08
7760;BME280;3924;48.830;9.262;2022-12-15T04:25:24;97591.47;;;-1.66;89.79
7760;BME280;3924;48.830;9.262;2022-12-15T04:28:11;97596.13;;;-1.73;89.61
7760;BME280;3924;48.830;9.262;2022-12-15T04:31:15;97593.94;;;-1.76;89.96
7760;BME280;3924;48.830;9.262;2022-12-15T04:34:05;97587.84;;;-1.77;90.08
7760;BME280;3924;48.830;9.262;2022-12-15T04:37:05;97582.03;;;-1.74;90.00
7760;BME280;3924;48.830;9.262;2022-12-15T04:39:56;97585.59;;;-1.68;90.19
7760;BME280;3924;48.830;9.262;2022-12-15T04:42:52;97583.50;;;-1.66;90.17
7760;BME280;3924;48.830;9.262;2022-12-15T04:45:44;97585.94;;;-1.64;89.84
7760;BME280;3924;48.830;9.262;2022-12-15T04:48:30;97591.25;;;-1.64;90.02
7760;BME280;3924;48.830;9.262;2022-12-15T04:51:25;97593.66;;;-1.63;90.04
7760;BME280;3924;48.830;9.262;2022-12-15T04:54:14;97590.78;;;-1.61;89.93
7760;BME280;3924;48.830;9.262;2022-12-15T04:56:58;97587.88;;;-1.60;89.78
7760;BME280;3924;48.830;9.262;2022-12-15T04:59:43;97585.22;;;-1.60;89.72
7760;BME280;3924;48.830;9.262;2022-12-15T05:02:28;97580.13;;;-1.61;89.93
7760;BME280;3924;48.830;9.262;2022-12-15T05:05:15;97591.56;;;-1.61;89.88
7760;BME280;3924;48.830;9.262;2022-12-15T05:08:00;97594.13;;;-1.66;90.03
7760;BME280;3924;48.830;9.262;2022-12-15T05:10:44;97589.63;;;-1.66;89.83
7760;BME280;3924;48.830;9.262;2022-12-15T05:13:29;97586.16;;;-1.66;89.96
7760;BME280;3924;48.830;9.262;2022-12-15T05:16:14;97581.19;;;-1.62;89.93
7760;BME280;3924;48.830;9.262;2022-12-15T05:18:59;97588.13;;;-1.61;90.01
7760;BME280;3924;48.830;9.262;2022-12-15T05:21:43;97592.13;;;-1.59;90.08
7760;BME280;3924;48.830;9.262;2022-12-15T05:24:29;97593.19;;;-1.60;89.91
7760;BME280;3924;48.830;9.262;2022-12-15T05:27:14;97597.94;;;-1.62;89.87
7760;BME280;3924;48.830;9.262;2022-12-15T05:29:59;97604.31;;;-1.63;89.83
7760;BME280;3924;48.830;9.262;2022-12-15T05:32:44;97608.81;;;-1.63;90.05
7760;BME280;3924;48.830;9.262;2022-12-15T05:35:15;97607.50;;;-1.61;90.08
7760;BME280;3924;48.830;9.262;2022-12-15T05:37:41;97597.69;;;-1.60;90.12
7760;BME280;3924;48.830;9.262;2022-12-15T05:40:08;97605.91;;;-1.62;89.96
7760;BME280;3924;48.830;9.262;2022-12-15T05:42:35;97610.06;;;-1.66;89.70
7760;BME280;3924;48.830;9.262;2022-12-15T05:45:01;97603.38;;;-1.69;89.79
7760;BME280;3924;48.830;9.262;2022-12-15T05:47:28;97602.03;;;-1.71;90.17
7760;BME280;3924;48.830;9.262;2022-12-15T05:49:54;97598.31;;;-1.70;90.14
7760;BME280;3924;48.830;9.262;2022-12-15T05:52:21;97599.94;;;-1.69;90.14
7760;BME280;3924;48.830;9.262;2022-12-15T05:54:47;97604.19;;;-1.68;90.03
7760;BME280;3924;48.830;9.262;2022-12-15T05:57:25;97612.72;;;-1.66;90.08
7760;BME280;3924;48.830;9.262;2022-12-15T05:59:56;97596.56;;;-1.64;90.15
7760;BME280;3924;48.830;9.262;2022-12-15T06:02:27;97601.63;;;-1.63;90.09
7760;BME280;3924;48.830;9.262;2022-12-15T06:05:07;97613.63;;;-1.60;89.96
7760;BME280;3924;48.830;9.262;2022-12-15T06:07:40;97624.25;;;-1.60;89.98
7760;BME280;3924;48.830;9.262;2022-12-15T06:10:16;97622.41;;;-1.60;90.14
7760;BME280;3924;48.830;9.262;2022-12-15T06:12:50;97611.78;;;-1.60;90.20
7760;BME280;3924;48.830;9.262;2022-12-15T06:15:18;97609.94;;;-1.59;90.01
7760;BME280;3924;48.830;9.262;2022-12-15T06:18:11;97613.63;;;-1.60;90.01
7760;BME280;3924;48.830;9.262;2022-12-15T06:20:41;97612.28;;;-1.63;90.14
7760;BME280;3924;48.830;9.262;2022-12-15T06:23:15;97637.44;;;-1.66;90.14
7760;BME280;3924;48.830;9.262;2022-12-15T06:25:50;97631.91;;;-1.64;90.10
7760;BME280;3924;48.830;9.262;2022-12-15T06:28:18;97626.34;;;-1.62;90.31
7760;BME280;3924;48.830;9.262;2022-12-15T06:30:54;97618.16;;;-1.61;90.11
7760;BME280;3924;48.830;9.262;2022-12-15T06:33:25;97617.66;;;-1.58;90.28
7760;BME280;3924;48.830;9.262;2022-12-15T06:36:10;97628.88;;;-1.56;90.39
7760;BME280;3924;48.830;9.262;2022-12-15T06:38:38;97625.16;;;-1.55;90.24
7760;BME280;3924;48.830;9.262;2022-12-15T06:41:12;97643.78;;;-1.55;90.13
7760;BME280;3924;48.830;9.262;2022-12-15T06:44:00;97626.22;;;-1.56;90.14
7760;BME280;3924;48.830;9.262;2022-12-15T06:47:01;97630.47;;;-1.55;90.33
7760;BME280;3924;48.830;9.262;2022-12-15T06:49:31;97630.00;;;-1.52;90.16
7760;BME280;3924;48.830;9.262;2022-12-15T06:52:01;97622.03;;;-1.52;90.08
7760;BME280;3924;48.830;9.262;2022-12-15T06:54:29;97619.16;;;-1.50;90.04
7760;BME280;3924;48.830;9.262;2022-12-15T06:56:56;97619.94;;;-1.50;89.98
7760;BME280;3924;48.830;9.262;2022-12-15T06:59:22;97620.75;;;-1.49;90.12
7760;BME280;3924;48.830;9.262;2022-12-15T07:01:49;97623.66;;;-1.51;90.16
7760;BME280;3924;48.830;9.262;2022-12-15T07:04:16;97614.63;;;-1.50;90.41
7760;BME280;3924;48.830;9.262;2022-12-15T07:06:42;97618.34;;;-1.51;90.16
7760;BME280;3924;48.830;9.262;2022-12-15T07:09:12;97618.91;;;-1.49;90.28
7760;BME280;3924;48.830;9.262;2022-12-15T07:11:41;97622.59;;;-1.50;90.12
7760;BME280;3924;48.830;9.262;2022-12-15T07:14:08;97630.91;;;-1.46;90.30
7760;BME280;3924;48.830;9.262;2022-12-15T07:16:35;97622.69;;;-1.45;90.24
7760;BME280;3924;48.830;9.262;2022-12-15T07:19:01;97626.97;;;-1.44;90.08
7760;BME280;3924;48.830;9.262;2022-12-15T07:21:28;97632.28;;;-1.44;90.13
7760;BME280;3924;48.830;9.262;2022-12-15T07:23:55;97638.72;;;-1.40;90.29
7760;BME280;3924;48.830;9.262;2022-12-15T07:26:23;97631.09;;;-1.36;90.19
7760;BME280;3924;48.830;9.262;2022-12-15T07:28:50;97630.84;;;-1.34;90.27
7760;BME280;3924;48.830;9.262;2022-12-15T07:31:16;97635.59;;;-1.36;89.97
7760;BME280;3924;48.830;9.262;2022-12-15T07:33:43;97642.53;;;-1.35;90.26
7760;BME280;3924;48.830;9.262;2022-12-15T07:36:10;97637.22;;;-1.35;90.33
7760;BME280;3924;48.830;9.262;2022-12-15T07:38:37;97638.81;;;-1.34;90.35
7760;BME280;3924;48.830;9.262;2022-12-15T07:41:06;97642.84;;;-1.32;90.48
7760;BME280;3924;48.830;9.262;2022-12-15T07:43:33;97656.72;;;-1.30;90.26
7760;BME280;3924;48.830;9.262;2022-12-15T07:46:01;97650.59;;;-1.30;90.00
7760;BME280;3924;48.830;9.262;2022-12-15T07:48:27;97652.22;;;-1.29;90.27
7760;BME280;3924;48.830;9.262;2022-12-15T07:50:54;97650.91;;;-1.27;90.29
7760;BME280;3924;48.830;9.262;2022-12-15T07:53:35;97635.88;;;-1.21;90.18
7760;BME280;3924;48.830;9.262;2022-12-15T07:56:04;97638.63;;;-1.16;90.05
7760;BME280;3924;48.830;9.262;2022-12-15T07:58:34;97642.75;;;-1.08;90.22
7760;BME280;3924;48.830;9.262;2022-12-15T08:01:03;97654.28;;;-1.03;90.05
7760;BME280;3924;48.830;9.262;2022-12-15T08:03:32;97661.75;;;-1.00;90.25
7760;BME280;3924;48.830;9.262;2022-12-15T08:06:12;97663.63;;;-1.00;89.92
7760;BME280;3924;48.830;9.262;2022-12-15T08:08:39;97668.38;;;-1.02;89.78
7760;BME280;3924;48.830;9.262;2022-12-15T08:11:09;97679.81;;;-1.02;89.89
7760;BME280;3924;48.830;9.262;2022-12-15T08:13:37;97682.47;;;-1.02;89.95
7760;BME280;3924;48.830;9.262;2022-12-15T08:16:23;97682.69;;;-1.03;90.07
7760;BME280;3924;48.830;9.262;2022-12-15T08:18:50;97683.03;;;-1.00;90.31
7760;BME280;3924;48.830;9.262;2022-12-15T08:21:17;97690.31;;;-0.95;89.98
7760;BME280;3924;48.830;9.262;2022-12-15T08:23:48;97698.03;;;-0.94;90.08
7760;BME280;3924;48.830;9.262;2022-12-15T08:26:21;97708.78;;;-0.89;89.92
7760;BME280;3924;48.830;9.262;2022-12-15T08:29:29;97710.94;;;-0.86;89.82
7760;BME280;3924;48.830;9.262;2022-12-15T08:32:29;97715.31;;;-0.79;89.96
7760;BME280;3924;48.830;9.262;2022-12-15T08:35:08;97717.41;;;-0.81;89.70
7760;BME280;3924;48.830;9.262;2022-12-15T08:38:03;97719.03;;;-0.80;89.76
7760;BME280;3924;48.830;9.262;2022-12-15T08:40:44;97707.41;;;-0.74;89.80
7760;BME280;3924;48.830;9.262;2022-12-15T08:43:30;97698.22;;;-0.67;89.76
7760;BME280;3924;48.830;9.262;2022-12-15T08:46:15;97687.44;;;-0.60;89.77
7760;BME280;3924;48.830;9.262;2022-12-15T08:49:01;97686.38;;;-0.59;89.48
7760;BME280;3924;48.830;9.262;2022-12-15T08:51:31;97696.31;;;-0.54;89.93
7760;BME280;3924;48.830;9.262;2022-12-15T08:54:06;97694.03;;;-0.46;89.92
7760;BME280;3924;48.830;9.262;2022-12-15T08:56:52;97702.66;;;-0.39;89.67
7760;BME280;3924;48.830;9.262;2022-12-15T08:59:24;97712.91;;;-0.31;89.87
7760;BME280;3924;48.830;9.262;2022-12-15T09:01:58;97715.06;;;-0.28;89.70
7760;BME280;3924;48.830;9.262;2022-12-15T09:04:25;97722.06;;;-0.21;89.51
7760;BME280;3924;48.830;9.262;2022-12-15T09:06:53;97714.88;;;-0.21;89.41
7760;BME280;3924;48.830;9.262;2022-12-15T09:09:23;97711.50;;;-0.16;89.46
7760;BME280;3924;48.830;9.262;2022-12-15T09:11:54;97705.63;;;-0.18;89.24
7760;BME280;3924;48.830;9.262;2022-12-15T09:14:27;97699.53;;;-0.14;89.52
7760;BME280;3924;48.830;9.262;2022-12-15T09:16:59;97707.69;;;-0.04;89.49
7760;BME280;3924;48.830;9.262;2022-12-15T09:19:35;97702.75;;;0.05;89.22
7760;BME280;3924;48.830;9.262;2022-12-15T09:22:10;97705.75;;;0.09;89.34
7760;BME280;3924;48.830;9.262;2022-12-15T09:24:37;97702.81;;;0.10;89.11
7760;BME280;3924;48.830;9.262;2022-12-15T09:27:04;97702.81;;;0.10;89.02
7760;BME280;3924;48.830;9.262;2022-12-15T09:29:31;97695.63;;;0.11;89.36
7760;BME280;3924;48.830;9.262;2022-12-15T09:31:58;97702.38;;;0.18;89.35
7760;BME280;3924;48.830;9.262;2022-12-15T09:34:25;97708.28;;;0.20;88.90
7760;BME280;3924;48.830;9.262;2022-12-15T09:36:51;97701.16;;;0.26;88.91
7760;BME280;3924;48.830;9.262;2022-12-15T09:39:17;97688.22;;;0.35;89.12
7760;BME280;3924;48.830;9.262;2022-12-15T09:41:53;97696.22;;;0.35;89.06
7760;BME280;3924;48.830;9.262;2022-12-15T09:44:22;97701.78;;;0.33;88.79
7760;BME280;3924;48.830;9.262;2022-12-15T09:49:48;97684.00;;;0.39;88.77
7760;BME280;3924;48.830;9.262;2022-12-15T09:52:32;97696.88;;;0.47;88.89
7760;BME280;3924;48.830;9.262;2022-12-15T09:55:02;97703.34;;;0.51;88.73
7760;BME280;3924;48.830;9.262;2022-12-15T09:57:43;97691.81;;;0.45;88.46
7760;BME280;3924;48.830;9.262;2022-12-15T10:06:26;97697.56;;;0.37;88.78
7760;BME280;3924;48.830;9.262;2022-12-15T10:09:14;97703.97;;;0.36;88.68
7760;BME280;3924;48.830;9.262;2022-12-15T10:11:50;97707.50;;;0.42;88.68
7760;BME280;3924;48.830;9.262;2022-12-15T10:14:41;97712.16;;;0.30;88.35
7760;BME280;3924;48.830;9.262;2022-12-15T10:20:21;97706.47;;;0.04;88.69
7760;BME280;3924;48.830;9.262;2022-12-15T10:22:48;97709.47;;;0.08;88.76
7760;BME280;3924;48.830;9.262;2022-12-15T10:25:22;97708.06;;;0.05;88.41
7760;BME280;3924;48.830;9.262;2022-12-15T10:31:14;97704.31;;;0.01;89.16
7760;BME280;3924;48.830;9.262;2022-12-15T10:33:46;97704.84;;;0.03;88.95
7760;BME280;3924;48.830;9.262;2022-12-15T10:36:15;97694.50;;;0.07;89.16
7760;BME280;3924;48.830;9.262;2022-12-15T10:38:44;97686.91;;;0.15;88.54
7760;BME280;3924;48.830;9.262;2022-12-15T10:41:24;97675.00;;;0.23;88.80
7760;BME280;3924;48.830;9.262;2022-12-15T10:43:52;97660.44;;;0.31;88.92
7760;BME280;3924;48.830;9.262;2022-12-15T10:46:22;97661.06;;;0.38;88.45
7760;BME280;3924;48.830;9.262;2022-12-15T10:48:51;97657.09;;;0.40;88.86
7760;BME280;3924;48.830;9.262;2022-12-15T10:51:25;97657.88;;;0.41;88.41
7760;BME280;3924;48.830;9.262;2022-12-15T10:56:27;97666.00;;;0.51;88.31
7760;BME280;3924;48.830;9.262;2022-12-15T10:59:05;97660.63;;;0.46;88.19
7760;BME280;3924;48.830;9.262;2022-12-15T11:01:46;97653.41;;;0.46;88.59
7760;BME280;3924;48.830;9.262;2022-12-15T11:04:30;97636.63;;;0.46;88.48
7760;BME280;3924;48.830;9.262;2022-12-15T11:06:59;97627.09;;;0.50;88.46
7760;BME280;3924;48.830;9.262;2022-12-15T11:09:35;97636.44;;;0.52;88.43
7760;BME280;3924;48.830;9.262;2022-12-15T11:12:23;97625.22;;;0.50;88.41
7760;BME280;3924;48.830;9.262;2022-12-15T11:18:16;97626.38;;;0.60;88.59
7760;BME280;3924;48.830;9.262;2022-12-15T11:21:10;97629.28;;;0.58;88.01
7760;BME280;3924;48.830;9.262;2022-12-15T11:27:40;97617.63;;;0.64;88.30
7760;BME280;3924;48.830;9.262;2022-12-15T11:30:45;97621.16;;;0.70;88.44
7760;BME280;3924;48.830;9.262;2022-12-15T11:33:38;97626.22;;;0.71;87.83
7760;BME280;3924;48.830;9.262;2022-12-15T11:42:48;97630.69;;;0.66;88.42
7760;BME280;3924;48.830;9.262;2022-12-15T11:51:47;97620.34;;;0.69;88.30
7760;BME280;3924;48.830;9.262;2022-12-15T12:00:21;97597.19;;;0.75;87.89
7760;BME280;3924;48.830;9.262;2022-12-15T12:06:36;97584.88;;;0.69;87.86
7760;BME280;3924;48.830;9.262;2022-12-15T12:12:17;97575.00;;;0.69;88.01
7760;BME280;3924;48.830;9.262;2022-12-15T12:15:14;97563.56;;;0.74;88.03
7760;BME280;3924;48.830;9.262;2022-12-15T12:17:52;97548.94;;;0.81;87.97
7760;BME280;3924;48.830;9.262;2022-12-15T12:20:28;97545.78;;;0.85;87.63
7760;BME280;3924;48.830;9.262;2022-12-15T12:23:21;97538.81;;;0.78;87.77
7760;BME280;3924;48.830;9.262;2022-12-15T12:26:14;97536.72;;;0.86;87.91
7760;BME280;3924;48.830;9.262;2022-12-15T12:28:50;97538.38;;;0.92;87.80
7760;BME280;3924;48.830;9.262;2022-12-15T12:31:49;97533.09;;;1.02;87.44
7760;BME280;3924;48.830;9.262;2022-12-15T12:34:23;97537.16;;;1.04;87.67
7760;BME280;3924;48.830;9.262;2022-12-15T12:36:52;97524.66;;;1.10;87.84
7760;BME280;3924;48.830;9.262;2022-12-15T12:39:22;97531.59;;;1.16;87.40
7760;BME280;3924;48.830;9.262;2022-12-15T12:42:06;97522.81;;;1.21;87.26
7760;BME280;3924;48.830;9.262;2022-12-15T12:44:36;97524.78;;;1.30;87.23
7760;BME280;3924;48.830;9.262;2022-12-15T12:47:14;97519.13;;;1.27;87.06
7760;BME280;3924;48.830;9.262;2022-12-15T12:49:49;97519.16;;;1.32;87.30
7760;BME280;3924;48.830;9.262;2022-12-15T12:52:26;97528.03;;;1.43;86.99
7760;BME280;3924;48.830;9.262;2022-12-15T12:57:32;97507.00;;;1.56;87.03
7760;BME280;3924;48.830;9.262;2022-12-15T13:00:22;97515.25;;;1.50;86.40
7760;BME280;3924;48.830;9.262;2022-12-15T13:03:15;97516.34;;;1.54;87.03
7760;BME280;3924;48.830;9.262;2022-12-15T13:05:43;97508.88;;;1.56;86.76
7760;BME280;3924;48.830;9.262;2022-12-15T13:10:45;97505.69;;;1.64;86.82
7760;BME280;3924;48.830;9.262;2022-12-15T13:13:41;97499.81;;;1.62;86.76
7760;BME280;3924;48.830;9.262;2022-12-15T13:16:24;97504.06;;;1.53;86.76
7760;BME280;3924;48.830;9.262;2022-12-15T13:19:05;97494.69;;;1.50;86.74
7760;BME280;3924;48.830;9.262;2022-12-15T13:21:54;97488.53;;;1.45;86.77
7760;BME280;3924;48.830;9.262;2022-12-15T13:24:35;97478.09;;;1.38;87.02
7760;BME280;3924;48.830;9.262;2022-12-15T13:29:58;97478.78;;;1.23;86.84
7760;BME280;3924;48.830;9.262;2022-12-15T13:32:36;97464.31;;;1.09;86.59
7760;BME280;3924;48.830;9.262;2022-12-15T13:35:25;97456.78;;;1.01;87.18
7760;BME280;3924;48.830;9.262;2022-12-15T13:37:59;97452.25;;;1.01;87.10
7760;BME280;3924;48.830;9.262;2022-12-15T13:45:50;97442.34;;;0.92;87.39
7760;BME280;3924;48.830;9.262;2022-12-15T13:48:32;97443.41;;;0.96;87.53
7760;BME280;3924;48.830;9.262;2022-12-15T13:51:09;97447.19;;;1.00;87.36
7760;BME280;3924;48.830;9.262;2022-12-15T13:53:41;97442.38;;;1.02;87.09
7760;BME280;3924;48.830;9.262;2022-12-15T13:58:47;97454.34;;;0.94;87.48
7760;BME280;3924;48.830;9.262;2022-12-15T14:01:26;97451.41;;;0.96;87.11
7760;BME280;3924;48.830;9.262;2022-12-15T14:04:09;97456.50;;;0.97;87.22
7760;BME280;3924;48.830;9.262;2022-12-15T14:06:56;97457.31;;;0.98;87.27
7760;BME280;3924;48.830;9.262;2022-12-15T14:09:31;97448.75;;;0.96;87.26
7760;BME280;3924;48.830;9.262;2022-12-15T14:12:00;97443.94;;;0.93;87.17
7760;BME280;3924;48.830;9.262;2022-12-15T14:14:32;97458.34;;;0.92;87.19
7760;BME280;3924;48.830;9.262;2022-12-15T14:17:02;97456.75;;;0.91;87.12
7760;BME280;3924;48.830;9.262;2022-12-15T14:19:43;97456.16;;;0.84;86.93
7760;BME280;3924;48.830;9.262;2022-12-15T14:22:28;97457.22;;;0.82;87.47
7760;BME280;3924;48.830;9.262;2022-12-15T14:25:01;97449.22;;;0.82;87.31
7760;BME280;3924;48.830;9.262;2022-12-15T14:27:31;97443.31;;;0.80;87.11
7760;BME280;3924;48.830;9.262;2022-12-15T14:32:41;97452.38;;;0.79;87.40
7760;BME280;3924;48.830;9.262;2022-12-15T14:35:23;97456.13;;;0.78;87.28
7760;BME280;3924;48.830;9.262;2022-12-15T14:37:54;97454.78;;;0.76;87.22
7760;BME280;3924;48.830;9.262;2022-12-15T14:40:23;97449.69;;;0.74;87.02
7760;BME280;3924;48.830;9.262;2022-12-15T14:42:54;97456.34;;;0.72;87.33
7760;BME280;3924;48.830;9.262;2022-12-15T14:45:25;97455.50;;;0.66;87.05
7760;BME280;3924;48.830;9.262;2022-12-15T14:47:59;97457.31;;;0.61;87.07
7760;BME280;3924;48.830;9.262;2022-12-15T14:50:47;97462.63;;;0.56;87.40
7760;BME280;3924;48.830;9.262;2022-12-15T14:53:17;97466.09;;;0.56;87.40
7760;BME280;3924;48.830;9.262;2022-12-15T14:55:46;97459.72;;;0.57;87.39
7760;BME280;3924;48.830;9.262;2022-12-15T14:58:25;97462.38;;;0.57;87.38
7760;BME280;3924;48.830;9.262;2022-12-15T15:00:55;97463.44;;;0.56;87.38
7760;BME280;3924;48.830;9.262;2022-12-15T15:03:38;97462.31;;;0.52;87.22
7760;BME280;3924;48.830;9.262;2022-12-15T15:08:50;97459.66;;;0.52;87.39
7760;BME280;3924;48.830;9.262;2022-12-15T15:13:59;97458.06;;;0.51;87.48
7760;BME280;3924;48.830;9.262;2022-12-15T15:16:27;97448.47;;;0.50;87.59
7760;BME280;3924;48.830;9.262;2022-12-15T15:18:55;97456.44;;;0.50;87.54
7760;BME280;3924;48.830;9.262;2022-12-15T15:21:24;97453.47;;;0.46;87.45
7760;BME280;3924;48.830;9.262;2022-12-15T15:24:03;97447.59;;;0.44;87.55
7760;BME280;3924;48.830;9.262;2022-12-15T15:26:30;97452.09;;;0.39;87.38
7760;BME280;3924;48.830;9.262;2022-12-15T15:28:57;97463.81;;;0.38;87.61
7760;BME280;3924;48.830;9.262;2022-12-15T15:33:50;97457.97;;;0.41;87.64
7760;BME280;3924;48.830;9.262;2022-12-15T15:36:18;97460.41;;;0.42;87.76
7760;BME280;3924;48.830;9.262;2022-12-15T15:38:45;97465.72;;;0.42;87.64
7760;BME280;3924;48.830;9.262;2022-12-15T15:43:42;97466.47;;;0.38;87.64
7760;BME280;3924;48.830;9.262;2022-12-15T15:46:14;97469.13;;;0.38;87.39
7760;BME280;3924;48.830;9.262;2022-12-15T15:48:44;97462.22;;;0.37;87.37
7760;BME280;3924;48.830;9.262;2022-12-15T15:51:12;97463.81;;;0.38;87.78
7760;BME280;3924;48.830;9.262;2022-12-15T15:53:39;97466.47;;;0.38;87.80
7760;BME280;3924;48.830;9.262;2022-12-15T15:56:08;97476.59;;;0.36;87.68
7760;BME280;3924;48.830;9.262;2022-12-15T15:58:35;97476.59;;;0.36;87.68
7760;BME280;3924;48.830;9.262;2022-12-15T16:01:02;97479.00;;;0.37;87.83
7760;BME280;3924;48.830;9.262;2022-12-15T16:03:38;97474.72;;;0.36;87.45
7760;BME280;3924;48.830;9.262;2022-12-15T16:06:05;97473.34;;;0.34;87.61
7760;BME280;3924;48.830;9.262;2022-12-15T16:08:39;97468.28;;;0.32;87.83